Time;durP1;ratioP1;P1;durP2;ratioP2;P2;SDS_P1;SDS_P2;PMS_P1;PMS_P2;Temp;Humidity;BMP_temperature;BMP_pressure;BME280_temperature;BME280_humidity;BME280_pressure;Samples;Min_cycle;Max_cycle;Signal;HPM_P1;HPM_P2
2023/05/03 00:07:23;;;;;;;9.73;5.10;;;8.60;99.90;;;;;;21074002;28;20028;-76
2023/05/03 00:17:24;;;;;;;12.47;5.90;;;8.40;99.90;;;;;;21075909;28;20035;-77
2023/05/03 00:27:25;;;;;;;16.07;6.30;;;8.50;99.90;;;;;;21074738;28;20061;-77
2023/05/03 00:37:26;;;;;;;14.20;6.50;;;8.10;99.90;;;;;;21070168;28;20166;-77
2023/05/03 00:47:27;;;;;;;9.52;5.30;;;8.00;99.90;;;;;;21074854;28;20035;-77
2023/05/03 00:57:28;;;;;;;;;;;7.40;99.90;;;;;;21070268;28;20123;-77
2023/05/03 01:07:32;;;;;;;11.20;5.72;;;7.40;99.90;;;;;;21045217;28;19912;-76
2023/05/03 01:17:40;;;;;;;11.15;5.95;;;6.90;99.90;;;;;;21055814;28;20028;-76
2023/05/03 01:27:42;;;;;;;10.60;6.20;;;7.30;99.90;;;;;;21073229;28;20032;-76
2023/05/03 01:37:43;;;;;;;12.90;5.63;;;7.30;99.90;;;;;;21067321;28;20487;-77
2023/05/03 01:47:44;;;;;;;18.23;7.00;;;7.10;99.90;;;;;;21079908;28;20028;-77
2023/05/03 01:57:44;;;;;;;12.73;6.00;;;7.10;99.90;;;;;;21087314;28;20482;-77
2023/05/03 02:07:45;;;;;;;13.33;6.37;;;7.20;99.90;;;;;;21079818;28;20057;-77
2023/05/03 02:17:48;;;;;;;15.87;5.93;;;7.00;99.90;;;;;;21084306;28;20124;-76
2023/05/03 02:27:48;;;;;;;12.80;6.68;;;7.20;99.90;;;;;;21085620;28;20266;-76
2023/05/03 02:37:50;;;;;;;11.17;5.53;;;7.30;99.90;;;;;;21054918;28;20044;-76
2023/05/03 02:47:51;;;;;;;8.75;5.45;;;7.10;99.90;;;;;;20982970;28;20487;-76
2023/05/03 02:57:53;;;;;;;10.98;6.38;;;7.00;99.90;;;;;;21019469;28;20115;-76
2023/05/03 03:07:54;;;;;;;11.00;5.75;;;7.20;99.90;;;;;;21045931;28;20526;-76
2023/05/03 03:17:57;;;;;;;14.57;6.82;;;6.80;99.90;;;;;;21046057;28;20036;-76
2023/05/03 03:27:59;;;;;;;11.77;6.00;;;6.70;99.90;;;;;;21078426;28;20105;-76
2023/05/03 03:38:00;;;;;;;13.20;5.45;;;6.50;99.90;;;;;;21075487;28;20027;-76
2023/05/03 03:48:01;;;;;;;;;;;6.80;99.90;;;;;;21077368;28;20027;-75
2023/05/03 03:58:02;;;;;;;48.47;7.13;;;6.50;99.90;;;;;;21077047;28;19912;-75
2023/05/03 04:08:04;;;;;;;50.80;6.72;;;6.40;99.90;;;;;;21071753;28;20525;-75
2023/05/03 04:18:07;;;;;;;45.63;7.40;;;5.90;99.90;;;;;;21075683;28;20039;-75
2023/05/03 04:28:12;;;;;;;13.85;6.18;;;5.60;99.90;;;;;;21074848;28;20035;-73
2023/05/03 04:38:18;;;;;;;16.05;5.28;;;5.70;99.90;;;;;;21066729;28;20427;-73
2023/05/03 04:48:18;;;;;;;11.63;6.13;;;5.70;99.90;;;;;;21072721;28;20032;-73
2023/05/03 04:58:20;;;;;;;9.43;5.43;;;5.80;99.90;;;;;;21068023;28;20032;-74
2023/05/03 05:08:22;;;;;;;10.00;5.88;;;6.10;99.90;;;;;;21038457;28;20039;-73
2023/05/03 05:18:27;;;;;;;41.47;8.00;;;6.20;99.90;;;;;;21007984;28;20028;-73
2023/05/03 05:28:30;;;;;;;17.55;6.63;;;6.70;99.90;;;;;;21070095;28;20032;-75
2023/05/03 05:38:31;;;;;;;37.45;6.05;;;6.90;99.90;;;;;;21086406;28;20031;-75
2023/05/03 05:48:33;;;;;;;8.73;5.63;;;7.30;99.90;;;;;;21068782;28;20575;-75
2023/05/03 05:58:38;;;;;;;16.88;6.13;;;7.60;99.90;;;;;;21062016;28;20421;-75
2023/05/03 06:08:40;;;;;;;24.85;6.60;;;7.80;99.90;;;;;;21060300;28;20063;-75
2023/05/03 06:18:41;;;;;;;10.05;5.75;;;7.90;99.90;;;;;;21064814;28;20024;-75
2023/05/03 06:28:42;;;;;;;13.77;7.20;;;8.60;99.90;;;;;;21067279;28;20032;-75
2023/05/03 06:38:43;;;;;;;15.20;7.17;;;9.10;99.90;;;;;;21079516;28;20028;-76
2023/05/03 06:48:43;;;;;;;;;;;9.70;99.90;;;;;;21082843;28;20506;-76
2023/05/03 06:58:44;;;;;;;15.68;7.35;;;10.60;99.90;;;;;;21082418;28;19912;-75
2023/05/03 07:08:45;;;;;;;18.07;7.63;;;11.40;99.90;;;;;;21033968;28;20029;-75
2023/05/03 07:18:47;;;;;;;15.03;7.57;;;12.00;99.90;;;;;;21057180;28;20032;-75
2023/05/03 07:28:48;;;;;;;17.98;8.20;;;12.30;99.90;;;;;;21080586;28;20032;-76
2023/05/03 07:38:49;;;;;;;12.40;7.50;;;12.90;99.90;;;;;;21030986;28;20547;-76
2023/05/03 07:48:49;;;;;;;14.37;8.00;;;13.70;99.90;;;;;;20997095;28;20032;-76
2023/05/03 07:58:50;;;;;;;14.80;7.70;;;14.10;99.90;;;;;;20994636;28;20055;-76
2023/05/03 08:08:51;;;;;;;13.43;7.27;;;14.70;99.90;;;;;;20994276;28;20438;-75
2023/05/03 08:18:52;;;;;;;16.13;7.50;;;15.30;99.90;;;;;;20990690;28;20113;-76
2023/05/03 08:28:53;;;;;;;9.83;6.13;;;15.60;99.90;;;;;;20992697;28;20029;-76
2023/05/03 08:38:54;;;;;;;10.32;5.60;;;16.10;99.90;;;;;;21037090;28;20051;-76
2023/05/03 08:48:55;;;;;;;9.97;6.93;;;16.60;99.90;;;;;;21072052;28;20032;-76
2023/05/03 08:58:57;;;;;;;10.33;5.53;;;17.00;99.90;;;;;;21071966;28;20379;-76
2023/05/03 09:08:58;;;;;;;7.95;4.75;;;17.50;99.90;;;;;;21023821;28;20115;-76
2023/05/03 09:19:05;;;;;;;13.40;4.78;;;18.10;99.90;;;;;;21054615;28;20036;-76
2023/05/03 09:29:06;;;;;;;8.13;4.22;;;18.20;99.90;;;;;;21073639;28;20102;-76
2023/05/03 09:39:16;;;;;;;5.40;3.73;;;18.30;99.90;;;;;;21003427;28;20071;-76
2023/05/03 09:49:17;;;;;;;5.03;3.45;;;18.80;99.90;;;;;;21023498;28;20085;-76
2023/05/03 09:59:17;;;;;;;8.70;3.80;;;19.10;99.90;;;;;;21028656;22;20052;-76
2023/05/03 10:09:41;;;;;;;6.70;3.90;;;19.70;99.90;;;;;;20999523;28;20021;-76
2023/05/03 10:20:08;;;;;;;5.50;2.85;;;20.20;99.90;;;;;;21002875;28;20563;-75
2023/05/03 10:30:31;;;;;;;5.65;2.80;;;20.10;99.90;;;;;;21002325;28;20103;-76
2023/05/03 10:40:42;;;;;;;10.43;3.45;;;21.00;99.90;;;;;;21001594;28;20102;-76
2023/05/03 10:50:43;;;;;;;4.23;3.30;;;20.60;99.90;;;;;;21001678;28;20029;-76
2023/05/03 11:00:46;;;;;;;5.03;2.67;;;21.00;99.90;;;;;;21012255;28;20044;-76
2023/05/03 11:11:08;;;;;;;5.53;3.05;;;20.60;99.90;;;;;;20991368;28;20051;-76
2023/05/03 11:21:10;;;;;;;3.37;2.70;;;21.20;99.90;;;;;;20978337;28;20040;-76
2023/05/03 11:31:12;;;;;;;5.80;2.60;;;21.60;99.90;;;;;;21008676;28;20155;-76
2023/05/03 11:41:15;;;;;;;3.50;2.10;;;21.30;99.90;;;;;;21005209;28;20047;-76
2023/05/03 11:51:21;;;;;;;5.60;1.92;;;21.70;99.90;;;;;;21098396;28;20474;-75
2023/05/03 12:01:24;;;;;;;3.03;2.00;;;21.60;98.40;;;;;;21097707;28;20524;-75
2023/05/03 12:11:25;;;;;;;1.70;1.50;;;21.90;99.20;;;;;;21092480;28;20431;-76
2023/05/03 12:21:41;;;;;;;;;;;21.90;98.90;;;;;;21093443;28;20073;-76
2023/05/03 12:31:44;;;;;;;4.10;2.17;;;22.00;97.80;;;;;;21093040;28;19915;-76
2023/05/03 12:41:45;;;;;;;6.70;1.98;;;22.40;97.50;;;;;;21094724;28;20378;-76
2023/05/03 12:51:45;;;;;;;2.00;1.40;;;22.00;97.40;;;;;;21075492;28;20034;-76
2023/05/03 13:01:47;;;;;;;1.80;1.60;;;22.70;95.90;;;;;;21098312;28;20058;-76
2023/05/03 13:11:50;;;;;;;3.50;1.95;;;22.20;96.40;;;;;;21090640;28;20435;-79
2023/05/03 13:21:53;;;;;;;2.47;1.48;;;22.00;95.60;;;;;;21083663;28;20044;-79
2023/05/03 13:31:53;;;;;;;;;;;22.50;94.80;;;;;;21081451;28;20111;-79
2023/05/03 13:41:54;;;;;;;2.70;1.40;;;22.70;94.80;;;;;;21095758;28;19920;-75
2023/05/03 13:51:55;;;;;;;2.87;1.87;;;22.60;94.00;;;;;;21069796;28;20293;-75
2023/05/03 14:01:57;;;;;;;;;;;22.50;94.80;;;;;;21094908;28;20088;-75
2023/05/03 14:11:58;;;;;;;5.17;1.97;;;22.30;92.70;;;;;;21099373;28;19922;-77
2023/05/03 14:21:59;;;;;;;3.63;2.22;;;22.20;94.40;;;;;;21078816;28;20039;-75
2023/05/03 14:32:00;;;;;;;1.83;1.50;;;22.00;93.50;;;;;;21079257;28;20090;-74
2023/05/03 14:42:02;;;;;;;3.27;1.70;;;22.40;92.80;;;;;;21091439;28;20166;-75
2023/05/03 14:52:03;;;;;;;3.03;2.20;;;22.30;92.30;;;;;;21085832;28;20486;-75
2023/05/03 15:02:03;;;;;;;4.40;2.07;;;22.00;93.60;;;;;;21087393;28;20109;-74
2023/05/03 15:12:04;;;;;;;5.13;1.80;;;22.00;92.30;;;;;;21085167;28;20331;-75
2023/05/03 15:22:05;;;;;;;3.30;1.70;;;21.80;91.80;;;;;;21085083;28;20042;-75
2023/05/03 15:32:06;;;;;;;3.38;1.88;;;21.60;92.30;;;;;;21084318;28;20816;-74
2023/05/03 15:42:07;;;;;;;3.27;1.93;;;21.10;93.40;;;;;;21082802;28;20047;-75
2023/05/03 15:52:08;;;;;;;5.40;1.70;;;21.10;93.10;;;;;;21078914;22;20090;-75
2023/05/03 16:02:09;;;;;;;3.40;2.30;;;20.70;93.60;;;;;;20978111;28;20324;-75
2023/05/03 16:12:09;;;;;;;5.03;1.90;;;20.00;94.60;;;;;;20929111;28;20039;-75
2023/05/03 16:22:10;;;;;;;3.57;1.93;;;19.90;95.80;;;;;;20962518;28;20029;-75
2023/05/03 16:32:11;;;;;;;2.33;1.67;;;19.70;96.10;;;;;;20933634;28;20040;-75
2023/05/03 16:42:12;;;;;;;6.00;2.27;;;19.50;95.20;;;;;;20958289;28;20043;-75
2023/05/03 16:52:13;;;;;;;4.10;2.05;;;19.20;96.70;;;;;;20967717;28;20098;-72
2023/05/03 17:02:13;;;;;;;4.27;2.17;;;19.20;96.90;;;;;;20950547;28;20021;-74
2023/05/03 17:12:15;;;;;;;5.50;2.27;;;18.70;96.40;;;;;;20921012;28;20050;-73
2023/05/03 17:22:15;;;;;;;6.78;2.22;;;18.50;97.30;;;;;;20939843;28;20475;-75
2023/05/03 17:32:16;;;;;;;3.23;2.20;;;18.40;98.90;;;;;;20989171;28;20032;-73
2023/05/03 17:42:17;;;;;;;3.77;2.20;;;18.20;99.30;;;;;;20908476;28;20483;-72
2023/05/03 17:52:18;;;;;;;3.00;2.30;;;17.60;99.90;;;;;;20969152;28;20031;-72
2023/05/03 18:02:20;;;;;;;3.80;2.67;;;17.30;99.90;;;;;;20987628;28;20029;-73
2023/05/03 18:12:21;;;;;;;4.38;2.80;;;17.00;99.90;;;;;;20887390;28;20088;-72
2023/05/03 18:22:22;;;;;;;4.67;2.50;;;16.60;99.90;;;;;;20853195;28;20026;-72
2023/05/03 18:32:23;;;;;;;5.23;2.73;;;16.30;99.90;;;;;;20839216;28;20286;-72
2023/05/03 18:42:24;;;;;;;4.60;3.15;;;16.10;99.90;;;;;;20836894;28;20028;-74
2023/05/03 18:52:25;;;;;;;5.60;2.80;;;15.80;99.90;;;;;;20974118;28;20039;-74
2023/05/03 19:02:29;;;;;;;4.83;2.93;;;15.30;99.90;;;;;;21003693;28;20024;-74
2023/05/03 19:12:30;;;;;;;7.57;3.92;;;14.70;99.90;;;;;;20896602;28;20033;-77
2023/05/03 19:22:30;;;;;;;7.23;3.70;;;14.40;99.90;;;;;;20876038;28;20061;-76
2023/05/03 19:32:35;;;;;;;5.33;3.80;;;14.20;99.90;;;;;;20976448;28;20455;-76
2023/05/03 19:42:35;;;;;;;6.30;4.38;;;13.80;99.90;;;;;;20929453;28;20033;-77
2023/05/03 19:52:36;;;;;;;8.97;4.70;;;13.30;99.90;;;;;;20851091;28;20602;-76
2023/05/03 20:02:37;;;;;;;6.23;4.70;;;12.70;99.90;;;;;;20844647;28;20496;-77
2023/05/03 20:12:38;;;;;;;5.77;4.57;;;12.50;99.90;;;;;;20842297;28;20490;-77
2023/05/03 20:22:39;;;;;;;8.97;4.97;;;12.40;99.90;;;;;;20839920;28;20052;-77
2023/05/03 20:32:40;;;;;;;6.78;4.47;;;11.90;99.90;;;;;;20841064;28;20056;-76
2023/05/03 20:42:41;;;;;;;5.90;4.13;;;11.80;99.90;;;;;;20841821;28;20430;-76
2023/05/03 20:52:42;;;;;;;9.37;4.20;;;12.20;99.90;;;;;;20834473;28;20164;-76
2023/05/03 21:02:43;;;;;;;6.13;4.07;;;12.30;99.90;;;;;;20834547;28;20037;-76
2023/05/03 21:12:44;;;;;;;7.07;4.40;;;12.20;99.90;;;;;;20838331;28;20045;-76
2023/05/03 21:22:45;;;;;;;11.85;4.40;;;11.50;99.90;;;;;;20895569;28;20025;-76
2023/05/03 21:32:49;;;;;;;6.87;3.90;;;11.70;99.90;;;;;;20919841;28;20112;-76
2023/05/03 21:42:51;;;;;;;8.57;4.15;;;11.80;99.90;;;;;;20920899;28;20040;-77
2023/05/03 21:52:52;;;;;;;5.07;3.83;;;11.60;99.90;;;;;;20955646;22;20063;-74
2023/05/03 22:02:53;;;;;;;6.27;3.90;;;11.60;99.90;;;;;;20996486;28;20024;-75
2023/05/03 22:12:54;;;;;;;5.47;3.73;;;11.70;99.90;;;;;;21003843;28;20032;-76
2023/05/03 22:22:55;;;;;;;8.60;4.40;;;11.70;99.90;;;;;;21002933;28;20032;-75
2023/05/03 22:32:55;;;;;;;7.72;4.38;;;11.40;99.90;;;;;;21001050;28;20039;-76
2023/05/03 22:42:56;;;;;;;7.07;4.63;;;11.30;99.90;;;;;;21077771;28;20036;-75
2023/05/03 22:52:57;;;;;;;7.87;5.10;;;11.20;99.90;;;;;;21084462;28;20126;-75
2023/05/03 23:02:58;;;;;;;7.47;4.80;;;11.00;99.90;;;;;;21083120;28;20436;-75
2023/05/03 23:12:58;;;;;;;8.40;5.33;;;10.90;99.90;;;;;;21081748;28;20058;-75
2023/05/03 23:22:59;;;;;;;5.87;4.37;;;11.00;99.90;;;;;;21081990;28;20046;-75
2023/05/03 23:33:00;;;;;;;9.90;5.57;;;11.20;99.90;;;;;;21081851;28;20062;-75
2023/05/03 23:43:01;;;;;;;10.87;5.57;;;11.20;99.90;;;;;;21080627;28;20470;-75
2023/05/03 23:53:02;;;;;;;7.17;5.03;;;10.60;99.90;;;;;;21079689;28;20059;-75
